Aérodrome :
LOGIN :

S'inscrire | Disclaimer

   EN    FR    IT 

 










Légende :    VFR   VFR Marginal   IFR   IFR Intensif   IFR Très Intensif
Visi : 
Plafond : 
>= 8 km
>= 3000ft
5 à 8 km
1000 à 3000 ft
1500m à 5 km
500 à 1000 ft
800 à 1500m
200 à 500 ft
< 800m
< 200 ft
Symboles :   Orages  Brouillard  Fortes neiges  Fortes précipitations  Vent > 20 kt
SIGMETs :   Divers  Orages  Givrage  Turbulence  Onde Orograph.  Cendres Volcan.






- Altitude de l'aérodrome : 154 ft
- Code IATA : SZZ


EPSC - Szczecin Goleniow

DERNIER METAR :
  • 152000Z 21010KT 180V240 9999 BKN035 BKN044 06/01 Q1002

METARs EXPIRÉS :
  • 151930Z 21007KT 180V240 9999 FEW038 BKN045 06/01 Q1002
  • 151900Z 21010KT 180V250 9999 FEW044 06/01 Q1001
  • 151830Z 21010KT 190V250 9999 BKN044 BKN049 06/01 Q1001
  • 151800Z 21010KT 180V250 9999 BKN047 06/01 Q1000
  • 151730Z 21010KT 180V240 9999 FEW042 BKN048 07/02 Q1000

TAF TAF EPSC
Valide du 15 à 18h jusqu'au 16 à 18h UTC


151730Z 1518/1618 21010KT 9999 SCT045
PROB30
TEMPO 1518/1522 20015G25KT SCT020CB
BECMG 1602/1605 15006KT
PROB40 1602/1608 BKN007
BECMG 1612/1614 4000 -RA BR BKN005
PROB40 1614/1618 1500 -RADZ BR BKN002



MET'MAP, la Météo Aéronautique d'un coup d'oeil ! - Copyright ORBIFLY Décembre 2007 - Disclaimer

ORBIFLY MET'MAP TEAM :

Programmation & Développement : Alexandra Zaïnal
Sur une idée originale de : Baudouin d'Aumeries
Assistance à la programmation : Marc-Olivier Méhu
Soutien technique & logistique : Manuel Goepfert

Contact : metmap@orbifly.com




SOURCES & CREDITS :

   NOAA